Time;durP1;ratioP1;P1;durP2;ratioP2;P2;SDS_P1;SDS_P2;PMS_P1;PMS_P2;Temp;Humidity;BMP_temperature;BMP_pressure;BME280_temperature;BME280_humidity;BME280_pressure;Samples;Min_cycle;Max_cycle;Signal;HPM_P1;HPM_P2
2023/08/09 00:02:22;;;;;;;1.20;1.20;;;16.20;99.90;;;;;;5034858;28;20149;-87
2023/08/09 00:04:48;;;;;;;2.27;2.07;;;16.20;99.90;;;;;;5024085;28;20178;-82
2023/08/09 00:07:14;;;;;;;2.63;1.70;;;16.20;99.90;;;;;;5028937;28;20181;-86
2023/08/09 00:09:41;;;;;;;3.17;1.67;;;16.10;99.90;;;;;;5025409;28;20201;-87
2023/08/09 00:12:07;;;;;;;1.43;1.43;;;16.00;99.90;;;;;;5012635;28;20185;-89
2023/08/09 00:14:36;;;;;;;1.20;1.20;;;16.00;99.90;;;;;;5029702;28;20271;-90
2023/08/09 00:17:02;;;;;;;1.40;1.30;;;15.90;99.90;;;;;;5025139;28;20651;-89
2023/08/09 00:19:31;;;;;;;1.97;1.30;;;15.90;99.90;;;;;;5018821;28;20178;-77
2023/08/09 00:21:57;;;;;;;1.40;1.40;;;15.90;99.90;;;;;;5017629;28;20684;-76
2023/08/09 00:24:23;;;;;;;1.20;1.20;;;15.80;99.90;;;;;;5021025;28;20204;-90
2023/08/09 00:26:48;;;;;;;1.53;1.43;;;15.80;99.90;;;;;;5010269;28;20181;-84
2023/08/09 00:29:15;;;;;;;1.43;1.37;;;15.80;99.90;;;;;;5032688;28;20174;-85
2023/08/09 00:31:41;;;;;;;2.40;1.30;;;15.70;99.90;;;;;;5023470;28;20188;-86
2023/08/09 00:34:13;;;;;;;2.70;1.40;;;15.70;99.90;;;;;;5021965;28;20177;-87
2023/08/09 00:36:39;;;;;;;2.23;1.60;;;15.70;99.90;;;;;;5029842;28;20232;-88
2023/08/09 00:39:06;;;;;;;1.70;1.30;;;15.70;99.90;;;;;;5035011;28;20185;-77
2023/08/09 00:41:33;;;;;;;2.37;1.40;;;15.70;99.90;;;;;;5030454;28;20224;-88
2023/08/09 00:43:58;;;;;;;1.50;1.40;;;15.70;99.90;;;;;;5003866;28;20187;-88
2023/08/09 00:46:24;;;;;;;1.60;1.50;;;15.70;99.90;;;;;;5021011;28;20288;-89
2023/08/09 00:48:50;;;;;;;1.57;1.47;;;15.70;99.90;;;;;;5022000;28;20173;-90
2023/08/09 00:51:19;;;;;;;1.77;1.67;;;15.70;99.90;;;;;;5022673;28;20183;-85
2023/08/09 00:53:47;;;;;;;2.03;1.47;;;15.60;99.90;;;;;;5027558;28;20214;-85
2023/08/09 00:56:14;;;;;;;2.40;1.70;;;15.60;99.90;;;;;;5021684;28;20201;-88
2023/08/09 00:58:39;;;;;;;3.63;1.90;;;15.60;99.90;;;;;;5021671;28;20174;-83
2023/08/09 01:01:07;;;;;;;3.50;1.60;;;15.60;99.90;;;;;;5029427;28;20223;-81
2023/08/09 01:03:34;;;;;;;1.97;1.70;;;15.60;99.90;;;;;;5025848;28;20166;-78
2023/08/09 01:06:12;;;;;;;3.60;1.73;;;15.50;99.90;;;;;;5024996;28;20185;-84
2023/08/09 01:09:09;;;;;;;1.40;1.30;;;15.40;99.90;;;;;;5019788;28;20175;-85
2023/08/09 01:11:44;;;;;;;1.63;1.53;;;15.50;99.90;;;;;;5019094;28;20198;-88
2023/08/09 01:14:12;;;;;;;1.57;1.40;;;15.50;99.90;;;;;;5023588;28;20167;-87
2023/08/09 01:16:39;;;;;;;1.40;1.40;;;15.50;99.90;;;;;;5022481;28;20216;-88
2023/08/09 01:19:11;;;;;;;2.90;1.63;;;15.50;99.90;;;;;;5022338;28;20237;-86
2023/08/09 01:21:39;;;;;;;1.97;1.67;;;15.50;99.90;;;;;;5034623;28;20177;-81
2023/08/09 01:24:08;;;;;;;2.00;1.60;;;15.40;99.90;;;;;;5026591;28;20191;-83
2023/08/09 01:26:38;;;;;;;2.43;2.23;;;15.60;99.90;;;;;;5026451;28;20181;-79
2023/08/09 01:29:03;;;;;;;1.73;1.53;;;15.40;99.90;;;;;;5002240;28;20178;-83
2023/08/09 01:31:30;;;;;;;2.00;1.60;;;15.40;99.90;;;;;;5030891;28;20181;-86
2023/08/09 01:33:56;;;;;;;1.63;1.53;;;15.40;99.90;;;;;;5026579;28;20174;-90
2023/08/09 01:36:29;;;;;;;1.80;1.70;;;15.40;99.90;;;;;;5021073;28;20208;-87
2023/08/09 01:39:06;;;;;;;2.30;1.63;;;15.20;99.90;;;;;;5030023;28;20194;-83
2023/08/09 01:41:34;;;;;;;2.40;1.70;;;15.50;99.90;;;;;;5020076;28;20184;-82
2023/08/09 01:44:01;;;;;;;2.27;1.80;;;15.40;99.90;;;;;;5027218;28;20237;-90
2023/08/09 01:46:27;;;;;;;2.00;1.80;;;15.30;99.90;;;;;;5020549;28;20231;-89
2023/08/09 01:49:08;;;;;;;2.70;1.80;;;15.30;99.90;;;;;;5020731;28;20177;-89
2023/08/09 01:51:33;;;;;;;2.57;2.13;;;15.30;99.90;;;;;;5020174;28;20159;-84
2023/08/09 01:53:59;;;;;;;2.67;1.70;;;15.30;99.90;;;;;;5017429;28;20181;-80
2023/08/09 01:56:27;;;;;;;1.73;1.63;;;15.30;99.90;;;;;;5017525;28;20592;-77
2023/08/09 01:58:53;;;;;;;1.80;1.63;;;15.30;99.90;;;;;;5016524;28;20185;-78
2023/08/09 02:01:19;;;;;;;3.03;1.83;;;15.30;99.90;;;;;;5016820;28;20178;-83
2023/08/09 02:03:45;;;;;;;2.73;1.80;;;15.30;99.90;;;;;;5029153;28;20181;-80
2023/08/09 02:06:11;;;;;;;3.53;1.90;;;15.30;99.90;;;;;;5027360;28;20235;-80
2023/08/09 02:08:36;;;;;;;2.03;1.90;;;15.30;99.90;;;;;;5020840;28;20181;-87
2023/08/09 02:11:02;;;;;;;2.17;1.67;;;15.20;99.90;;;;;;5009727;28;20185;-88
2023/08/09 02:13:28;;;;;;;1.97;1.87;;;15.20;99.90;;;;;;5021969;28;20181;-88
2023/08/09 02:15:54;;;;;;;2.63;1.40;;;15.20;99.90;;;;;;5034726;28;20208;-84
2023/08/09 02:18:19;;;;;;;1.70;1.60;;;15.20;99.90;;;;;;5026975;28;20239;-79
2023/08/09 02:20:45;;;;;;;2.30;2.00;;;15.20;99.90;;;;;;5017059;28;20289;-85
2023/08/09 02:23:12;;;;;;;2.10;1.90;;;15.10;99.90;;;;;;4998128;28;20233;-87
2023/08/09 02:25:38;;;;;;;2.20;1.90;;;15.20;99.90;;;;;;5018513;28;20185;-85
2023/08/09 02:28:04;;;;;;;1.73;1.63;;;15.10;99.90;;;;;;5022475;28;20206;-87
2023/08/09 02:30:30;;;;;;;2.90;1.80;;;15.10;99.90;;;;;;5004634;28;20206;-84
2023/08/09 02:32:55;;;;;;;1.63;1.53;;;15.10;99.90;;;;;;5022237;28;20308;-85
2023/08/09 02:35:22;;;;;;;2.60;1.80;;;15.10;99.90;;;;;;5022718;28;20207;-81
2023/08/09 02:37:49;;;;;;;4.83;2.10;;;15.20;99.90;;;;;;5004327;28;20178;-82
2023/08/09 02:40:14;;;;;;;2.40;1.80;;;15.10;99.90;;;;;;5021839;28;20663;-84
2023/08/09 02:42:40;;;;;;;2.37;1.83;;;15.20;99.90;;;;;;5023355;28;20174;-83
2023/08/09 02:45:08;;;;;;;2.13;1.80;;;15.20;99.90;;;;;;5026198;28;20192;-80
2023/08/09 02:47:34;;;;;;;1.87;1.70;;;15.20;99.90;;;;;;5024136;28;20271;-87
2023/08/09 02:49:59;;;;;;;2.13;2.03;;;14.50;99.90;;;;;;5008081;28;20189;-84
2023/08/09 02:52:26;;;;;;;1.90;1.80;;;15.20;99.90;;;;;;5012731;28;20217;-78
2023/08/09 02:54:52;;;;;;;2.97;1.83;;;15.20;99.90;;;;;;5027471;28;20196;-82
2023/08/09 02:57:18;;;;;;;1.90;1.80;;;15.20;99.90;;;;;;5026982;28;20273;-83
2023/08/09 02:59:43;;;;;;;1.63;1.53;;;15.20;99.90;;;;;;5032697;28;20181;-87
2023/08/09 03:02:13;;;;;;;1.80;1.70;;;15.10;99.90;;;;;;5036891;28;20193;-84
2023/08/09 03:04:38;;;;;;;1.87;1.73;;;15.10;99.90;;;;;;5029745;28;20201;-88
2023/08/09 03:07:04;;;;;;;2.77;1.67;;;15.10;99.90;;;;;;5029894;28;20700;-83
2023/08/09 03:09:30;;;;;;;2.27;1.80;;;15.20;99.90;;;;;;5029944;28;20217;-87
2023/08/09 03:11:56;;;;;;;1.97;1.80;;;15.10;99.90;;;;;;5024703;28;20188;-89
2023/08/09 03:14:22;;;;;;;3.90;1.80;;;15.10;99.90;;;;;;5024473;28;20177;-80
2023/08/09 03:16:48;;;;;;;3.00;1.80;;;15.00;99.90;;;;;;5041058;28;20188;-79
2023/08/09 03:19:13;;;;;;;3.53;1.70;;;15.10;99.90;;;;;;5018656;28;20260;-85
2023/08/09 03:21:39;;;;;;;2.77;1.90;;;15.10;99.90;;;;;;5025262;28;20184;-88
2023/08/09 03:24:05;;;;;;;2.23;2.00;;;15.10;99.90;;;;;;5024210;28;20180;-86
2023/08/09 03:26:32;;;;;;;2.37;2.03;;;15.00;99.90;;;;;;5024126;28;20299;-84
2023/08/09 03:28:57;;;;;;;3.07;2.07;;;15.10;99.90;;;;;;5022501;28;20176;-81
2023/08/09 03:31:23;;;;;;;1.93;1.80;;;15.10;99.90;;;;;;5023477;28;20198;-83
2023/08/09 03:33:49;;;;;;;1.73;1.67;;;15.10;99.90;;;;;;5025687;28;20186;-81
2023/08/09 03:36:15;;;;;;;3.03;1.80;;;15.10;99.90;;;;;;5027006;28;20618;-84
2023/08/09 03:38:41;;;;;;;2.30;1.67;;;15.10;99.90;;;;;;5020810;28;20170;-82
2023/08/09 03:41:06;;;;;;;2.23;2.13;;;15.10;99.90;;;;;;5030609;28;20179;-78
2023/08/09 03:43:32;;;;;;;1.83;1.73;;;15.20;99.90;;;;;;5031143;28;20169;-80
2023/08/09 03:45:58;;;;;;;1.97;1.87;;;15.20;99.90;;;;;;5025941;28;20183;-80
2023/08/09 03:48:24;;;;;;;2.83;2.17;;;15.20;99.90;;;;;;5019996;28;20219;-79
2023/08/09 03:50:49;;;;;;;2.90;1.90;;;15.20;99.90;;;;;;5004830;28;20185;-87
2023/08/09 03:53:15;;;;;;;3.10;2.23;;;15.20;99.90;;;;;;5031541;28;20177;-88
2023/08/09 03:55:42;;;;;;;2.10;2.00;;;15.20;99.90;;;;;;5008465;28;20292;-85
2023/08/09 03:58:08;;;;;;;3.33;2.17;;;15.20;99.90;;;;;;5023660;28;20177;-87
2023/08/09 04:00:33;;;;;;;4.37;2.40;;;15.20;99.90;;;;;;5024048;28;20179;-88
2023/08/09 04:02:59;;;;;;;3.47;2.10;;;15.20;99.90;;;;;;5021282;28;20202;-86
2023/08/09 04:05:25;;;;;;;2.30;2.10;;;15.20;99.90;;;;;;5003523;28;20184;-81
2023/08/09 04:07:51;;;;;;;2.83;1.90;;;15.20;99.90;;;;;;5018185;28;20626;-81
2023/08/09 04:10:17;;;;;;;3.23;2.20;;;15.20;99.90;;;;;;5018694;28;20181;-84
2023/08/09 04:12:43;;;;;;;3.10;1.80;;;15.30;99.90;;;;;;5008851;28;20190;-80
2023/08/09 04:15:10;;;;;;;3.87;2.03;;;15.30;99.90;;;;;;5018032;28;20197;-83
2023/08/09 04:17:35;;;;;;;2.30;1.90;;;15.30;99.90;;;;;;5017782;28;20196;-84
2023/08/09 04:20:04;;;;;;;2.83;2.47;;;15.40;99.90;;;;;;5017879;28;20624;-78
2023/08/09 04:22:30;;;;;;;3.50;2.37;;;15.40;99.90;;;;;;5017597;28;20169;-78
2023/08/09 04:24:55;;;;;;;1.90;1.80;;;15.40;99.90;;;;;;5017692;28;20200;-79
2023/08/09 04:27:23;;;;;;;2.03;1.93;;;15.30;99.90;;;;;;5018229;28;20185;-78
2023/08/09 04:29:49;;;;;;;2.10;1.90;;;15.20;99.90;;;;;;5017482;28;20276;-84
2023/08/09 04:32:14;;;;;;;1.67;1.57;;;15.20;99.90;;;;;;5018364;28;20252;-79
2023/08/09 04:34:40;;;;;;;2.10;2.00;;;15.20;99.90;;;;;;5019703;28;20193;-84
2023/08/09 04:37:06;;;;;;;2.57;2.07;;;15.30;99.90;;;;;;5000816;28;20607;-79
2023/08/09 04:39:32;;;;;;;2.67;1.80;;;15.20;99.90;;;;;;5018990;28;20173;-79
2023/08/09 04:41:58;;;;;;;3.43;2.00;;;15.10;99.90;;;;;;5022096;28;20420;-87
2023/08/09 04:44:25;;;;;;;5.70;2.10;;;15.50;99.90;;;;;;5001620;28;20185;-80
2023/08/09 04:46:50;;;;;;;1.90;1.80;;;15.10;99.90;;;;;;5015741;28;20311;-83
2023/08/09 04:49:16;;;;;;;2.00;1.90;;;15.10;99.90;;;;;;4998663;28;20220;-77
2023/08/09 04:51:42;;;;;;;2.10;1.90;;;15.20;99.90;;;;;;5017028;28;20189;-77
2023/08/09 04:54:08;;;;;;;3.73;2.10;;;15.30;99.90;;;;;;5033012;28;20242;-84
2023/08/09 04:56:34;;;;;;;1.70;1.60;;;15.30;99.90;;;;;;5040066;28;20189;-81
2023/08/09 04:59:00;;;;;;;2.03;1.93;;;15.30;99.90;;;;;;5025465;28;20173;-79
2023/08/09 05:01:26;;;;;;;2.70;2.00;;;15.30;99.90;;;;;;5017639;28;20184;-77
2023/08/09 05:03:51;;;;;;;2.27;2.03;;;15.30;99.90;;;;;;5018419;28;20165;-82
2023/08/09 05:06:17;;;;;;;2.20;2.00;;;15.30;99.90;;;;;;5017964;28;20755;-76
2023/08/09 05:08:44;;;;;;;7.37;2.10;;;15.30;99.90;;;;;;5016738;28;20191;-81
2023/08/09 05:11:11;;;;;;;2.10;2.00;;;15.10;99.90;;;;;;4999239;28;20189;-80
2023/08/09 05:13:37;;;;;;;4.47;2.27;;;15.50;99.90;;;;;;5016701;28;20178;-81
2023/08/09 05:16:02;;;;;;;2.37;2.00;;;15.60;99.90;;;;;;5028734;28;20197;-79
2023/08/09 05:18:28;;;;;;;1.90;1.80;;;15.60;99.90;;;;;;5022135;28;20211;-79
2023/08/09 05:20:54;;;;;;;2.73;2.03;;;15.70;99.90;;;;;;5017454;28;20200;-80
2023/08/09 05:23:20;;;;;;;2.10;1.90;;;15.60;99.90;;;;;;5017340;28;20177;-79
2023/08/09 05:25:46;;;;;;;2.83;2.43;;;15.60;99.90;;;;;;5015951;28;20211;-81
2023/08/09 05:28:12;;;;;;;3.03;2.17;;;15.60;99.90;;;;;;5027136;28;20188;-77
2023/08/09 05:30:37;;;;;;;2.40;2.20;;;15.60;99.90;;;;;;5024384;28;20184;-79
2023/08/09 05:33:04;;;;;;;7.27;2.80;;;15.70;99.90;;;;;;5025689;28;20231;-80
2023/08/09 05:35:30;;;;;;;2.20;2.00;;;15.70;99.90;;;;;;5017174;28;20213;-81
2023/08/09 05:37:56;;;;;;;3.97;1.90;;;15.70;99.90;;;;;;5017065;28;20583;-79
2023/08/09 05:40:22;;;;;;;2.43;2.23;;;15.70;99.90;;;;;;5017548;28;20262;-81
2023/08/09 05:42:47;;;;;;;2.20;2.10;;;15.70;99.90;;;;;;5015553;28;20593;-80
2023/08/09 05:45:14;;;;;;;2.03;1.93;;;15.60;99.90;;;;;;5021128;28;20178;-87
2023/08/09 05:47:40;;;;;;;2.40;2.10;;;15.60;99.90;;;;;;5022228;28;20258;-86
2023/08/09 05:50:06;;;;;;;3.73;2.30;;;15.60;99.90;;;;;;5019366;28;20259;-81
2023/08/09 05:52:32;;;;;;;4.93;2.20;;;15.70;99.90;;;;;;5020224;28;20204;-79
2023/08/09 05:54:58;;;;;;;2.60;2.40;;;15.70;99.90;;;;;;5025963;28;20469;-79
2023/08/09 05:57:25;;;;;;;2.33;2.13;;;15.80;99.90;;;;;;5033424;28;20162;-79
2023/08/09 05:59:51;;;;;;;2.20;2.10;;;15.80;99.90;;;;;;5032749;28;20169;-79
2023/08/09 06:02:17;;;;;;;4.37;2.20;;;16.00;99.90;;;;;;5031409;28;20229;-79
2023/08/09 06:04:43;;;;;;;2.87;1.97;;;16.00;99.90;;;;;;5031504;28;20173;-78
2023/08/09 06:07:10;;;;;;;2.10;1.90;;;16.00;99.90;;;;;;5030244;28;20177;-80
2023/08/09 06:09:36;;;;;;;3.40;2.10;;;16.20;99.90;;;;;;5026898;28;20178;-79
2023/08/09 06:12:05;;;;;;;2.40;2.20;;;16.20;99.90;;;;;;5019608;28;20185;-77
2023/08/09 06:14:32;;;;;;;3.47;2.13;;;16.20;99.90;;;;;;5021234;28;20185;-78
2023/08/09 06:16:57;;;;;;;4.27;2.40;;;16.10;99.90;;;;;;5016367;28;20210;-78
2023/08/09 06:19:23;;;;;;;3.80;2.00;;;16.10;99.90;;;;;;5016414;28;20186;-78
2023/08/09 06:21:49;;;;;;;2.70;2.33;;;16.10;99.90;;;;;;5019534;28;20213;-77
2023/08/09 06:24:15;;;;;;;3.10;2.13;;;16.10;99.90;;;;;;5017444;28;20177;-78
2023/08/09 06:26:41;;;;;;;2.03;1.87;;;16.20;99.90;;;;;;5017698;28;20181;-79
2023/08/09 06:29:09;;;;;;;2.00;1.90;;;16.30;99.90;;;;;;5016056;28;20196;-79
2023/08/09 06:31:34;;;;;;;5.63;1.90;;;16.50;99.90;;;;;;5038119;28;20196;-82
2023/08/09 06:34:00;;;;;;;4.87;2.30;;;16.50;99.90;;;;;;5011168;28;20651;-84
2023/08/09 06:36:26;;;;;;;3.33;2.17;;;16.60;99.90;;;;;;5015539;28;20213;-83
2023/08/09 06:38:52;;;;;;;3.47;2.00;;;16.60;99.90;;;;;;5017893;28;20263;-82
2023/08/09 06:41:18;;;;;;;2.20;2.00;;;16.60;99.90;;;;;;5015651;28;20263;-83
2023/08/09 06:43:43;;;;;;;2.40;2.20;;;16.60;99.90;;;;;;5016782;28;20252;-86
2023/08/09 06:46:09;;;;;;;3.00;2.13;;;16.60;99.90;;;;;;5017634;28;20225;-82
2023/08/09 06:48:35;;;;;;;2.50;2.30;;;16.60;99.90;;;;;;5019320;28;20166;-79
2023/08/09 06:51:03;;;;;;;4.80;2.20;;;16.60;99.90;;;;;;5021109;28;20241;-79
2023/08/09 06:53:28;;;;;;;1.97;1.87;;;16.70;99.90;;;;;;5031799;28;20184;-79
2023/08/09 06:55:54;;;;;;;2.50;2.00;;;16.90;99.90;;;;;;5022412;28;20219;-81
2023/08/09 06:58:20;;;;;;;2.00;1.90;;;17.00;99.90;;;;;;5018815;28;20177;-82
2023/08/09 07:00:47;;;;;;;2.13;2.03;;;17.10;99.90;;;;;;5020054;28;20157;-79
2023/08/09 07:03:13;;;;;;;2.90;1.83;;;17.20;99.90;;;;;;5020728;28;20184;-83
2023/08/09 07:05:40;;;;;;;2.30;2.20;;;17.30;99.90;;;;;;5034625;28;20164;-82
2023/08/09 07:08:06;;;;;;;2.10;2.00;;;18.00;99.90;;;;;;5021443;28;20165;-85
2023/08/09 07:10:32;;;;;;;2.07;1.90;;;17.30;99.90;;;;;;5018487;28;20529;-84
2023/08/09 07:12:58;;;;;;;2.13;1.93;;;17.50;99.90;;;;;;5022481;28;20258;-87
2023/08/09 07:15:25;;;;;;;3.50;1.90;;;17.60;99.90;;;;;;5020944;28;20205;-87
2023/08/09 07:17:52;;;;;;;1.90;1.80;;;17.60;99.90;;;;;;5020195;28;20250;-82
2023/08/09 07:20:18;;;;;;;1.97;1.87;;;17.60;99.90;;;;;;5021666;28;20173;-80
2023/08/09 07:22:45;;;;;;;3.80;2.23;;;17.50;99.90;;;;;;5021493;28;20255;-84
2023/08/09 07:25:15;;;;;;;2.10;2.00;;;17.50;99.90;;;;;;5021078;28;20176;-80
2023/08/09 07:27:43;;;;;;;2.50;2.30;;;17.60;99.90;;;;;;5020213;28;20166;-82
2023/08/09 07:30:10;;;;;;;2.83;1.83;;;17.70;99.90;;;;;;5019549;28;20259;-85
2023/08/09 07:32:40;;;;;;;1.90;1.80;;;17.80;99.90;;;;;;5021239;28;20177;-80
2023/08/09 07:35:07;;;;;;;2.60;2.10;;;18.00;99.90;;;;;;5022074;28;20196;-81
2023/08/09 07:37:34;;;;;;;2.13;1.93;;;18.10;99.90;;;;;;5003564;28;20181;-82
2023/08/09 07:40:00;;;;;;;1.90;1.80;;;18.30;99.90;;;;;;5019476;28;20640;-80
2023/08/09 07:42:25;;;;;;;2.33;2.13;;;18.30;99.90;;;;;;5019725;28;20184;-85
2023/08/09 07:44:51;;;;;;;2.33;1.90;;;18.50;99.90;;;;;;5018371;28;20173;-80
2023/08/09 07:47:17;;;;;;;3.30;2.20;;;18.70;99.90;;;;;;5017020;28;20228;-82
2023/08/09 07:49:43;;;;;;;2.00;1.90;;;18.80;99.90;;;;;;5017229;28;20192;-83
2023/08/09 07:52:09;;;;;;;2.13;1.90;;;19.00;99.90;;;;;;5017750;28;20520;-81
2023/08/09 07:54:34;;;;;;;2.10;2.00;;;19.20;99.90;;;;;;5018082;28;20170;-80
2023/08/09 07:57:03;;;;;;;2.40;2.20;;;19.30;99.90;;;;;;5017531;28;20273;-81
2023/08/09 07:59:29;;;;;;;3.20;2.43;;;19.50;99.90;;;;;;5017400;28;20180;-79
2023/08/09 08:01:54;;;;;;;5.53;2.50;;;19.60;99.90;;;;;;5028180;28;20272;-79
2023/08/09 08:04:20;;;;;;;2.83;2.57;;;19.80;99.90;;;;;;5007787;28;20243;-85
2023/08/09 08:06:48;;;;;;;3.37;2.47;;;19.90;99.90;;;;;;5040084;28;20173;-83
2023/08/09 08:09:14;;;;;;;4.73;2.30;;;20.10;99.90;;;;;;5036671;28;20173;-81
2023/08/09 08:11:40;;;;;;;2.50;2.20;;;20.20;99.90;;;;;;5021867;28;20212;-79
2023/08/09 08:14:08;;;;;;;4.77;2.40;;;20.40;99.90;;;;;;5028385;28;20169;-84
2023/08/09 08:16:35;;;;;;;5.83;2.57;;;20.40;99.90;;;;;;5018765;28;20262;-83
2023/08/09 08:19:02;;;;;;;5.07;2.47;;;20.30;99.90;;;;;;5001385;28;20185;-82
2023/08/09 08:21:28;;;;;;;4.47;2.50;;;20.40;99.90;;;;;;5017960;28;20166;-84
2023/08/09 08:23:56;;;;;;;3.80;2.43;;;20.50;99.90;;;;;;5016966;28;20201;-78
2023/08/09 08:26:22;;;;;;;2.20;2.00;;;20.50;99.90;;;;;;5005098;28;20245;-79
2023/08/09 08:28:48;;;;;;;2.20;2.03;;;20.60;99.90;;;;;;5007665;28;20199;-79
2023/08/09 08:31:19;;;;;;;3.37;2.03;;;20.70;99.90;;;;;;5028726;28;20173;-84
2023/08/09 08:33:46;;;;;;;2.47;2.07;;;19.90;99.90;;;;;;5001878;28;20579;-82
2023/08/09 08:36:12;;;;;;;3.90;3.10;;;20.80;99.90;;;;;;5000340;28;20692;-83
2023/08/09 08:38:38;;;;;;;4.63;3.07;;;20.80;99.90;;;;;;5019581;28;20176;-83
2023/08/09 08:41:05;;;;;;;7.80;2.63;;;20.60;99.90;;;;;;5012740;28;20267;-79
2023/08/09 08:43:31;;;;;;;5.03;2.47;;;20.50;99.90;;;;;;5024755;28;20292;-80
2023/08/09 08:45:59;;;;;;;3.63;2.77;;;20.60;99.90;;;;;;5017480;28;20178;-81
2023/08/09 08:48:25;;;;;;;5.03;3.00;;;20.70;99.90;;;;;;5019389;28;20162;-84
2023/08/09 08:50:52;;;;;;;5.10;2.80;;;20.70;99.90;;;;;;5017250;28;20224;-86
2023/08/09 08:53:19;;;;;;;3.10;2.67;;;20.70;99.90;;;;;;5016286;28;20245;-85
2023/08/09 08:55:45;;;;;;;5.13;2.50;;;20.70;99.90;;;;;;5017360;28;20209;-80
2023/08/09 08:58:13;;;;;;;3.13;2.20;;;20.80;99.90;;;;;;5017495;28;20223;-84
2023/08/09 09:00:39;;;;;;;5.40;2.43;;;20.80;99.90;;;;;;5017279;28;20264;-85
2023/08/09 09:03:04;;;;;;;4.13;2.23;;;20.80;99.90;;;;;;5017004;28;20200;-79
2023/08/09 09:05:30;;;;;;;4.03;2.10;;;20.80;99.90;;;;;;5016985;28;20185;-81
2023/08/09 09:07:56;;;;;;;4.63;2.17;;;20.80;99.90;;;;;;5017636;28;20174;-78
2023/08/09 09:10:24;;;;;;;6.90;2.80;;;20.80;99.90;;;;;;5017287;28;20169;-79
2023/08/09 09:12:51;;;;;;;3.10;2.20;;;20.70;99.90;;;;;;5017027;28;20232;-80
2023/08/09 09:15:17;;;;;;;2.50;2.30;;;20.80;99.90;;;;;;5018655;28;20193;-85
2023/08/09 09:17:48;;;;;;;2.80;1.90;;;20.80;99.90;;;;;;5017963;28;20227;-81
2023/08/09 09:20:26;;;;;;;3.37;2.40;;;20.90;99.90;;;;;;5015770;28;20169;-83
2023/08/09 09:22:53;;;;;;;4.23;2.67;;;21.00;99.90;;;;;;4999100;28;20263;-85
2023/08/09 09:25:19;;;;;;;2.37;2.17;;;21.00;99.90;;;;;;5020023;28;20181;-84
2023/08/09 09:27:49;;;;;;;3.67;2.40;;;21.10;99.90;;;;;;5019474;28;20165;-84
2023/08/09 09:30:15;;;;;;;3.40;2.50;;;21.10;99.90;;;;;;5016829;28;20682;-83
2023/08/09 09:32:56;;;;;;;2.43;2.13;;;21.30;99.90;;;;;;5022843;28;20181;-82
2023/08/09 09:35:28;;;;;;;4.13;2.30;;;21.50;99.90;;;;;;5020650;28;20205;-84
2023/08/09 09:38:01;;;;;;;3.23;2.30;;;21.50;99.90;;;;;;5016110;28;20157;-83
2023/08/09 09:40:35;;;;;;;4.83;1.93;;;21.50;99.90;;;;;;5017249;28;20165;-82
2023/08/09 09:43:02;;;;;;;3.27;2.00;;;21.60;99.90;;;;;;5032652;28;20230;-83
2023/08/09 09:45:30;;;;;;;4.13;2.30;;;21.60;99.90;;;;;;5039247;28;20157;-83
2023/08/09 09:47:58;;;;;;;2.57;2.37;;;21.70;99.90;;;;;;5022998;28;20221;-84
2023/08/09 09:50:27;;;;;;;2.43;2.13;;;21.60;99.90;;;;;;5017124;28;20169;-85
2023/08/09 09:52:54;;;;;;;3.40;2.53;;;21.60;99.90;;;;;;5017285;28;20174;-85
2023/08/09 09:55:25;;;;;;;4.83;2.27;;;21.60;99.90;;;;;;5015811;28;20197;-84
2023/08/09 09:57:52;;;;;;;2.83;2.30;;;21.60;99.90;;;;;;5017005;28;20197;-83
2023/08/09 10:00:22;;;;;;;3.80;2.20;;;21.40;99.90;;;;;;5017511;28;20509;-85
2023/08/09 10:02:51;;;;;;;11.93;2.50;;;21.20;99.90;;;;;;5022914;28;20165;-83
2023/08/09 10:05:21;;;;;;;2.40;2.20;;;21.20;99.90;;;;;;5024116;28;20177;-83
2023/08/09 10:07:48;;;;;;;4.30;2.80;;;21.40;99.90;;;;;;5026738;28;20621;-86
2023/08/09 10:10:16;;;;;;;3.87;2.60;;;21.40;99.90;;;;;;5018903;28;20228;-88
2023/08/09 10:12:47;;;;;;;2.28;2.15;;;21.50;99.90;;;;;;5019938;28;20224;-87
2023/08/09 10:15:16;;;;;;;3.77;2.30;;;21.60;99.90;;;;;;5016922;28;20219;-86
2023/08/09 10:17:44;;;;;;;5.33;3.53;;;21.60;99.90;;;;;;5013795;28;20173;-86
2023/08/09 10:20:11;;;;;;;2.50;2.30;;;21.70;99.90;;;;;;5022205;28;20174;-80
2023/08/09 10:22:38;;;;;;;6.45;2.20;;;21.80;99.90;;;;;;5016386;28;20184;-79
2023/08/09 10:25:04;;;;;;;4.82;2.67;;;21.60;99.90;;;;;;5016504;28;20248;-81
2023/08/09 10:27:53;;;;;;;2.57;2.37;;;21.50;99.90;;;;;;4998315;28;20267;-85
2023/08/09 10:30:28;;;;;;;3.90;2.23;;;21.40;99.90;;;;;;5017039;28;20248;-87
2023/08/09 10:32:56;;;;;;;3.05;2.53;;;21.50;99.90;;;;;;5017833;28;20179;-85
2023/08/09 10:35:47;;;;;;;2.67;2.33;;;21.60;99.90;;;;;;5016672;28;20201;-86
2023/08/09 10:38:14;;;;;;;6.13;3.13;;;21.90;99.90;;;;;;5015728;28;20177;-87
2023/08/09 10:40:48;;;;;;;4.80;2.77;;;22.10;99.90;;;;;;4998409;28;20177;-85
2023/08/09 10:43:20;;;;;;;3.65;2.25;;;22.30;99.90;;;;;;5016303;28;20171;-88
2023/08/09 10:45:48;;;;;;;2.58;2.33;;;22.50;99.90;;;;;;5016276;28;20204;-80
2023/08/09 10:48:23;;;;;;;2.60;2.40;;;22.60;99.90;;;;;;5017913;28;20591;-82
2023/08/09 10:51:16;;;;;;;2.60;2.10;;;22.60;99.90;;;;;;5000637;28;20246;-81
2023/08/09 10:54:02;;;;;;;3.13;2.28;;;22.50;99.90;;;;;;5024443;28;20185;-79
2023/08/09 10:56:42;;;;;;;5.22;3.38;;;22.50;99.90;;;;;;5022260;28;20211;-80
2023/08/09 10:59:13;;;;;;;4.75;3.90;;;22.50;99.90;;;;;;5018224;28;20176;-84
2023/08/09 11:01:40;;;;;;;3.35;2.60;;;22.50;99.90;;;;;;5020068;28;20173;-89
2023/08/09 11:04:14;;;;;;;3.60;2.60;;;22.40;99.90;;;;;;5023293;28;20342;-84
2023/08/09 11:06:44;;;;;;;2.10;2.00;;;22.30;99.90;;;;;;5022593;28;20204;-83
2023/08/09 11:09:16;;;;;;;6.00;2.60;;;22.20;99.90;;;;;;5006784;28;20197;-83
2023/08/09 11:11:43;;;;;;;2.85;2.08;;;22.40;99.90;;;;;;5003990;28;20224;-87
2023/08/09 11:14:10;;;;;;;2.05;1.95;;;22.30;99.90;;;;;;5022344;28;20231;-91
2023/08/09 11:16:37;;;;;;;2.78;2.03;;;22.20;99.90;;;;;;5027418;28;20201;-88
2023/08/09 11:19:05;;;;;;;4.40;2.28;;;22.00;99.90;;;;;;5026395;28;20185;-82
2023/08/09 11:22:01;;;;;;;4.28;1.92;;;22.10;99.90;;;;;;5039125;28;20180;-83
2023/08/09 11:24:29;;;;;;;2.20;2.00;;;22.20;99.90;;;;;;5024944;28;20197;-86
2023/08/09 11:26:57;;;;;;;2.33;2.10;;;22.30;99.90;;;;;;5006478;28;20576;-85
2023/08/09 11:29:27;;;;;;;5.32;2.20;;;22.00;99.90;;;;;;5015710;28;20180;-81
2023/08/09 11:31:55;;;;;;;3.40;2.25;;;22.10;99.90;;;;;;5029360;28;20181;-86
2023/08/09 11:34:22;;;;;;;2.60;2.40;;;21.90;99.90;;;;;;5030171;28;20169;-86
2023/08/09 11:36:50;;;;;;;2.47;2.20;;;21.70;99.90;;;;;;5013654;28;20213;-83
2023/08/09 11:39:19;;;;;;;2.58;1.85;;;21.80;99.90;;;;;;5026722;28;20192;-82
2023/08/09 11:41:56;;;;;;;3.43;1.90;;;21.50;99.90;;;;;;5029985;28;20162;-80
2023/08/09 11:44:31;;;;;;;2.40;2.20;;;21.30;99.90;;;;;;5031364;28;20171;-82
2023/08/09 11:46:59;;;;;;;1.87;1.70;;;21.10;99.90;;;;;;5020469;28;20274;-80
2023/08/09 11:49:30;;;;;;;2.13;1.93;;;21.00;99.90;;;;;;5020863;28;20178;-84
2023/08/09 11:51:57;;;;;;;1.67;1.57;;;20.90;99.90;;;;;;5023924;28;20165;-80
2023/08/09 11:54:23;;;;;;;3.73;1.80;;;20.60;99.90;;;;;;5035472;28;20178;-82
2023/08/09 11:56:50;;;;;;;2.40;2.00;;;20.70;99.90;;;;;;5025020;28;20213;-85
2023/08/09 11:59:19;;;;;;;1.97;1.60;;;20.60;99.90;;;;;;5019992;28;20169;-85
2023/08/09 12:01:48;;;;;;;1.50;1.40;;;20.50;99.90;;;;;;5022549;28;20196;-83
2023/08/09 12:04:19;;;;;;;1.60;1.50;;;20.40;99.90;;;;;;5022192;28;20173;-87
2023/08/09 12:07:08;;;;;;;1.80;1.70;;;20.30;99.90;;;;;;5023512;28;20185;-81
2023/08/09 12:09:36;;;;;;;1.77;1.67;;;20.30;99.90;;;;;;5016480;28;20272;-86
2023/08/09 12:12:17;;;;;;;1.80;1.70;;;20.50;99.90;;;;;;5003987;28;20238;-85
2023/08/09 12:14:49;;;;;;;1.50;1.50;;;20.50;99.90;;;;;;5010430;28;20177;-80
2023/08/09 12:17:25;;;;;;;2.73;1.80;;;20.40;99.90;;;;;;5026487;28;20201;-79
2023/08/09 12:19:54;;;;;;;2.50;2.17;;;20.20;99.90;;;;;;5023060;28;20177;-87
2023/08/09 12:22:20;;;;;;;2.63;1.67;;;20.00;99.90;;;;;;5020693;28;20173;-84
2023/08/09 12:24:45;;;;;;;4.00;1.73;;;19.80;99.90;;;;;;5019865;28;20633;-83
2023/08/09 12:27:11;;;;;;;2.30;1.80;;;19.60;99.90;;;;;;5018779;28;20256;-82
2023/08/09 12:29:38;;;;;;;2.00;1.90;;;19.30;99.90;;;;;;5020413;28;20661;-85
2023/08/09 12:32:04;;;;;;;2.23;1.80;;;19.20;99.90;;;;;;5023132;28;20180;-89
2023/08/09 12:34:30;;;;;;;2.87;1.87;;;19.00;99.90;;;;;;5022314;28;20177;-84
2023/08/09 12:36:57;;;;;;;1.87;1.70;;;18.90;99.90;;;;;;5023042;28;20216;-83
2023/08/09 12:39:23;;;;;;;2.70;1.87;;;18.90;99.90;;;;;;5019921;28;20173;-88
2023/08/09 12:41:49;;;;;;;1.87;1.77;;;18.70;99.90;;;;;;5021641;28;20185;-87
2023/08/09 12:44:15;;;;;;;3.23;1.83;;;18.50;99.90;;;;;;5020829;28;20173;-86
2023/08/09 12:46:42;;;;;;;2.73;2.07;;;18.40;99.90;;;;;;5020105;28;20221;-87
2023/08/09 12:49:08;;;;;;;1.80;1.70;;;18.30;99.90;;;;;;5020598;28;20173;-82
2023/08/09 12:51:34;;;;;;;1.67;1.60;;;18.30;99.90;;;;;;5018363;28;20795;-82